Time;durP1;ratioP1;P1;durP2;ratioP2;P2;SDS_P1;SDS_P2;PMS_P1;PMS_P2;Temp;Humidity;BMP_temperature;BMP_pressure;BME280_temperature;BME280_humidity;BME280_pressure;Samples;Min_cycle;Max_cycle;Signal;HPM_P1;HPM_P2
2023/01/19 00:01:12;;;;;;;5.20;4.28;;;22.40;99.90;;;;;;5052718;28;20882;-59
2023/01/19 00:03:38;;;;;;;6.20;4.60;;;22.40;99.90;;;;;;5044679;28;20422;-58
2023/01/19 00:06:05;;;;;;;6.40;4.90;;;22.40;99.90;;;;;;5051799;28;20387;-61
2023/01/19 00:08:34;;;;;;;6.38;4.43;;;22.40;99.90;;;;;;5037527;28;20405;-60
2023/01/19 00:11:00;;;;;;;6.05;4.65;;;22.40;99.90;;;;;;5037639;28;20407;-59
2023/01/19 00:13:26;;;;;;;5.10;4.23;;;22.40;99.90;;;;;;5035538;28;20915;-60
2023/01/19 00:15:51;;;;;;;6.20;4.70;;;22.40;99.90;;;;;;5041145;28;21213;-59
2023/01/19 00:18:17;;;;;;;5.53;4.70;;;22.40;99.90;;;;;;5036770;28;20459;-61
2023/01/19 00:20:47;;;;;;;6.70;4.40;;;22.30;99.90;;;;;;5039001;28;20459;-59
2023/01/19 00:23:13;;;;;;;6.07;4.43;;;22.40;99.90;;;;;;5037092;28;21125;-59
2023/01/19 00:25:41;;;;;;;5.13;4.25;;;22.40;99.90;;;;;;5037979;28;20399;-59
2023/01/19 00:28:11;;;;;;;6.57;4.45;;;22.40;99.90;;;;;;5049708;28;20430;-59
2023/01/19 00:30:38;;;;;;;5.53;4.38;;;22.30;99.90;;;;;;5053170;28;20426;-59
2023/01/19 00:33:04;;;;;;;5.45;4.60;;;22.30;99.90;;;;;;5053285;28;20457;-59
2023/01/19 00:35:30;;;;;;;5.75;4.65;;;22.30;99.90;;;;;;5053496;28;20403;-59
2023/01/19 00:37:57;;;;;;;5.00;4.20;;;22.30;99.90;;;;;;5052313;28;20391;-59
2023/01/19 00:40:23;;;;;;;4.80;4.30;;;22.30;99.90;;;;;;5052013;28;20379;-59
2023/01/19 00:42:48;;;;;;;5.05;4.10;;;22.30;99.90;;;;;;5053134;28;20429;-59
2023/01/19 00:45:19;;;;;;;6.03;4.03;;;22.30;99.90;;;;;;5052958;28;20429;-59
2023/01/19 00:47:47;;;;;;;5.30;4.38;;;22.30;99.90;;;;;;5320030;22;20420;-60
2023/01/19 00:50:15;;;;;;;4.65;4.15;;;22.20;99.90;;;;;;5057896;28;20803;-59
2023/01/19 00:52:42;;;;;;;5.78;4.60;;;22.20;99.90;;;;;;5072808;28;20414;-60
2023/01/19 00:55:10;;;;;;;5.05;4.32;;;22.20;99.90;;;;;;5056352;28;20450;-59
2023/01/19 00:57:36;;;;;;;5.65;4.43;;;22.20;99.90;;;;;;5052741;28;20468;-60
2023/01/19 01:00:06;;;;;;;5.47;4.40;;;22.20;99.90;;;;;;5053431;28;20730;-59
2023/01/19 01:02:32;;;;;;;4.72;4.20;;;22.20;99.90;;;;;;5053718;28;20383;-59
2023/01/19 01:05:01;;;;;;;4.85;4.00;;;22.20;99.90;;;;;;5052729;28;20383;-59
2023/01/19 01:07:28;;;;;;;4.93;4.03;;;22.20;99.90;;;;;;5051615;28;20455;-60
2023/01/19 01:09:55;;;;;;;4.97;4.10;;;22.10;99.90;;;;;;5053039;28;20406;-58
2023/01/19 01:12:22;;;;;;;5.80;3.92;;;22.10;99.90;;;;;;5052386;28;20384;-60
2023/01/19 01:14:48;;;;;;;4.43;3.97;;;22.10;99.90;;;;;;5052727;28;20380;-59
2023/01/19 01:17:13;;;;;;;4.40;4.00;;;22.10;99.90;;;;;;5052272;28;20387;-58
2023/01/19 01:19:42;;;;;;;5.30;4.17;;;22.10;99.90;;;;;;5051015;28;20380;-60
2023/01/19 01:22:09;;;;;;;5.05;4.07;;;22.10;99.90;;;;;;5053073;28;20372;-59
2023/01/19 01:24:35;;;;;;;5.23;4.00;;;22.10;99.90;;;;;;5053422;28;20376;-60
2023/01/19 01:27:00;;;;;;;4.90;4.10;;;22.10;99.90;;;;;;5027000;28;20409;-59
2023/01/19 01:29:26;;;;;;;4.68;3.65;;;22.10;99.90;;;;;;5047409;28;20403;-59
2023/01/19 01:31:52;;;;;;;5.27;3.93;;;22.00;99.90;;;;;;5052040;28;20383;-58
2023/01/19 01:34:17;;;;;;;6.17;4.60;;;22.00;99.90;;;;;;5052013;28;20479;-61
2023/01/19 01:36:43;;;;;;;4.30;3.78;;;22.00;99.90;;;;;;5051822;28;20439;-59
2023/01/19 01:39:09;;;;;;;4.63;4.07;;;22.00;99.90;;;;;;5052177;28;20426;-59
2023/01/19 01:41:35;;;;;;;4.30;3.75;;;22.00;99.90;;;;;;5052098;28;20418;-60
2023/01/19 01:44:05;;;;;;;4.60;4.00;;;22.00;99.90;;;;;;5051952;28;20387;-59
2023/01/19 01:46:31;;;;;;;4.32;3.90;;;22.00;99.90;;;;;;5051955;28;20376;-60
2023/01/19 01:49:07;;;;;;;5.22;4.20;;;22.00;99.90;;;;;;5051601;28;21079;-59
2023/01/19 01:51:35;;;;;;;4.15;3.78;;;22.00;99.90;;;;;;5051854;28;20433;-59
2023/01/19 01:54:16;;;;;;;4.47;4.00;;;22.00;99.90;;;;;;5051269;28;20866;-59
2023/01/19 01:56:47;;;;;;;4.30;3.70;;;22.00;99.90;;;;;;5051503;28;20403;-60
2023/01/19 01:59:26;;;;;;;3.90;3.35;;;22.00;99.90;;;;;;5040633;28;20503;-59
2023/01/19 02:04:52;;;;;;;5.15;4.22;;;22.00;99.90;;;;;;5042679;28;20462;-59
2023/01/19 02:13:20;;;;;;;4.50;3.75;;;22.10;99.90;;;;;;5048486;28;20457;-59
2023/01/19 02:15:58;;;;;;;3.95;3.45;;;22.10;99.90;;;;;;5050616;28;20400;-60
2023/01/19 02:18:27;;;;;;;4.57;4.07;;;22.10;99.90;;;;;;5051205;28;20380;-61
2023/01/19 02:21:03;;;;;;;4.38;3.90;;;22.10;99.90;;;;;;5051611;28;20806;-59
2023/01/19 02:23:56;;;;;;;3.85;3.35;;;22.10;99.90;;;;;;5051352;28;20715;-61
2023/01/19 02:26:27;;;;;;;4.40;3.55;;;22.10;99.90;;;;;;5051171;28;20391;-60
2023/01/19 02:28:57;;;;;;;4.85;3.80;;;22.10;99.90;;;;;;5051186;28;20379;-58
2023/01/19 02:31:24;;;;;;;4.00;3.40;;;22.10;99.90;;;;;;5051300;28;20467;-59
2023/01/19 02:33:51;;;;;;;4.47;3.50;;;22.10;99.90;;;;;;5051041;28;20431;-60
2023/01/19 02:36:22;;;;;;;4.53;3.43;;;22.10;99.90;;;;;;5050630;28;20959;-60
2023/01/19 02:38:49;;;;;;;4.75;3.50;;;22.10;99.90;;;;;;5051004;28;20410;-59
2023/01/19 02:41:22;;;;;;;4.30;3.53;;;22.10;99.90;;;;;;5051012;28;20434;-59
2023/01/19 02:43:49;;;;;;;3.80;3.40;;;22.10;99.90;;;;;;5049313;28;20386;-59
2023/01/19 02:46:15;;;;;;;3.83;3.30;;;22.10;99.90;;;;;;5050979;28;20376;-60
2023/01/19 02:48:41;;;;;;;3.63;3.33;;;22.10;99.90;;;;;;5049190;28;20402;-60
2023/01/19 02:51:22;;;;;;;4.90;3.38;;;22.10;99.90;;;;;;5051244;28;20410;-60
2023/01/19 02:53:50;;;;;;;3.53;3.22;;;22.10;99.90;;;;;;5050135;28;20380;-59
2023/01/19 02:56:33;;;;;;;3.85;3.40;;;22.10;99.90;;;;;;5050375;28;20404;-59
2023/01/19 02:59:10;;;;;;;3.50;3.20;;;22.10;99.90;;;;;;5050376;28;20924;-59
2023/01/19 03:02:07;;;;;;;3.83;3.25;;;22.10;99.90;;;;;;5050567;28;20368;-59
2023/01/19 03:04:45;;;;;;;3.88;3.47;;;22.10;99.90;;;;;;5050084;28;20380;-60
2023/01/19 03:07:26;;;;;;;3.60;3.30;;;22.10;99.90;;;;;;5050598;28;20457;-59
2023/01/19 03:10:03;;;;;;;4.15;3.30;;;22.10;99.90;;;;;;5049451;28;20387;-59
2023/01/19 03:12:44;;;;;;;3.85;3.40;;;22.10;99.90;;;;;;5050430;28;20434;-59
2023/01/19 03:15:23;;;;;;;3.57;3.27;;;22.10;99.90;;;;;;5069358;28;20456;-60
2023/01/19 03:17:51;;;;;;;3.87;3.27;;;22.10;99.90;;;;;;5049305;28;20453;-59
2023/01/19 03:20:21;;;;;;;3.85;3.40;;;22.20;99.90;;;;;;5047212;28;20400;-59
2023/01/19 03:22:54;;;;;;;3.93;3.30;;;22.10;99.90;;;;;;5049803;28;20395;-59
2023/01/19 03:25:21;;;;;;;3.50;3.20;;;22.20;99.90;;;;;;5049118;28;20534;-58
2023/01/19 03:27:50;;;;;;;3.88;3.38;;;22.10;99.90;;;;;;5049346;28;20746;-59
2023/01/19 03:30:27;;;;;;;4.18;3.42;;;22.10;99.90;;;;;;5047950;28;21024;-61
2023/01/19 03:33:03;;;;;;;3.60;2.90;;;22.10;99.90;;;;;;5049335;28;20394;-58
2023/01/19 03:35:33;;;;;;;4.13;3.10;;;22.10;99.90;;;;;;5050774;28;20505;-58
2023/01/19 03:38:02;;;;;;;3.45;3.15;;;22.10;99.90;;;;;;5049544;28;20489;-59
2023/01/19 03:40:30;;;;;;;4.90;3.30;;;22.20;99.90;;;;;;5047624;28;20400;-59
2023/01/19 03:42:57;;;;;;;3.50;3.17;;;22.20;99.90;;;;;;5049247;28;20403;-59
2023/01/19 03:45:23;;;;;;;4.33;3.30;;;22.20;99.90;;;;;;5050063;28;20453;-59
2023/01/19 03:47:49;;;;;;;3.67;3.30;;;22.20;99.90;;;;;;5049855;28;20885;-59
2023/01/19 03:50:26;;;;;;;3.22;2.83;;;22.10;99.90;;;;;;5050663;28;20379;-60
2023/01/19 03:53:14;;;;;;;3.85;3.40;;;22.20;99.90;;;;;;5050728;28;20892;-60
2023/01/19 03:55:47;;;;;;;3.38;2.92;;;22.10;99.90;;;;;;5049950;28;20430;-59
2023/01/19 03:58:13;;;;;;;3.20;2.90;;;22.20;99.90;;;;;;5049946;28;20978;-60
2023/01/19 04:00:39;;;;;;;3.03;2.72;;;22.20;99.90;;;;;;5049679;28;20384;-59
2023/01/19 04:03:10;;;;;;;3.97;3.15;;;22.20;99.90;;;;;;5049753;28;20379;-60
2023/01/19 04:05:36;;;;;;;3.45;2.72;;;22.20;99.90;;;;;;5049545;28;20403;-60
2023/01/19 04:08:02;;;;;;;3.20;2.90;;;22.20;99.90;;;;;;5050132;28;20869;-60
2023/01/19 04:10:27;;;;;;;3.40;2.90;;;22.20;99.90;;;;;;5060780;28;20872;-59
2023/01/19 04:13:01;;;;;;;3.43;3.03;;;22.20;99.90;;;;;;5068803;28;20369;-60
2023/01/19 04:15:27;;;;;;;3.93;3.20;;;22.20;99.90;;;;;;5069111;28;20466;-60
2023/01/19 04:17:53;;;;;;;3.13;2.83;;;22.20;99.90;;;;;;5069583;28;20384;-60
2023/01/19 04:20:20;;;;;;;3.97;3.20;;;22.20;99.90;;;;;;5049701;28;20372;-58
2023/01/19 04:22:46;;;;;;;3.33;3.00;;;22.20;99.90;;;;;;5049669;28;20380;-59
2023/01/19 04:25:12;;;;;;;3.17;2.88;;;22.20;99.90;;;;;;5050006;28;20390;-59
2023/01/19 04:27:37;;;;;;;3.47;3.03;;;22.20;99.90;;;;;;5050038;28;20371;-59
2023/01/19 04:30:04;;;;;;;3.38;2.83;;;22.10;99.90;;;;;;5049842;28;20376;-59
2023/01/19 04:32:31;;;;;;;3.28;2.92;;;22.20;99.90;;;;;;5053859;28;20872;-60
2023/01/19 04:34:57;;;;;;;2.90;2.70;;;22.20;99.90;;;;;;5053075;28;20463;-61
2023/01/19 04:37:22;;;;;;;3.22;2.92;;;22.20;99.90;;;;;;5052192;28;20474;-60
2023/01/19 04:39:48;;;;;;;3.10;2.60;;;22.20;99.90;;;;;;5052987;28;20448;-59
2023/01/19 04:42:14;;;;;;;3.40;2.90;;;22.20;99.90;;;;;;5053411;28;20403;-59
2023/01/19 04:44:39;;;;;;;3.07;2.77;;;22.20;99.90;;;;;;5051308;28;20945;-60
2023/01/19 04:47:05;;;;;;;3.03;2.70;;;22.20;99.90;;;;;;5049395;28;20487;-60
2023/01/19 04:49:31;;;;;;;3.10;2.80;;;22.20;99.90;;;;;;5048747;28;20503;-59
2023/01/19 04:51:57;;;;;;;2.90;2.67;;;22.20;99.90;;;;;;5052991;28;20471;-59
2023/01/19 04:54:22;;;;;;;3.07;2.80;;;22.20;99.90;;;;;;5050485;28;20773;-61
2023/01/19 04:56:48;;;;;;;3.05;2.75;;;22.20;99.90;;;;;;5051942;28;20404;-59
2023/01/19 04:59:14;;;;;;;3.07;2.77;;;22.20;99.90;;;;;;5048908;28;20443;-60
2023/01/19 05:01:39;;;;;;;2.92;2.60;;;22.20;99.90;;;;;;5052671;28;20379;-59
2023/01/19 05:04:06;;;;;;;2.63;2.40;;;22.20;99.90;;;;;;5052043;28;20372;-59
2023/01/19 05:06:32;;;;;;;3.00;2.60;;;22.20;99.90;;;;;;5051483;28;20858;-60
2023/01/19 05:08:58;;;;;;;2.60;2.40;;;22.20;99.90;;;;;;5051667;28;20376;-60
2023/01/19 05:11:24;;;;;;;3.00;2.70;;;22.20;99.90;;;;;;5051765;28;20383;-59
2023/01/19 05:13:50;;;;;;;3.05;2.75;;;22.20;99.90;;;;;;5051506;28;20422;-59
2023/01/19 05:16:15;;;;;;;2.60;2.40;;;22.20;99.90;;;;;;5050930;28;20434;-59
2023/01/19 05:18:41;;;;;;;3.00;2.70;;;22.20;99.90;;;;;;5050597;28;20372;-60
2023/01/19 05:21:07;;;;;;;3.33;2.63;;;22.20;99.90;;;;;;5051158;28;20372;-60
2023/01/19 05:23:33;;;;;;;3.40;2.80;;;22.20;99.90;;;;;;5051751;28;20386;-59
2023/01/19 05:26:00;;;;;;;3.10;2.80;;;22.30;99.90;;;;;;5051257;28;20847;-60
2023/01/19 05:28:31;;;;;;;3.30;2.53;;;22.20;99.90;;;;;;5050187;28;20403;-60
2023/01/19 05:30:57;;;;;;;3.00;2.70;;;22.20;99.90;;;;;;5051418;28;20742;-59
2023/01/19 05:33:23;;;;;;;3.00;2.70;;;22.20;99.90;;;;;;5051623;28;20436;-59
2023/01/19 05:35:50;;;;;;;2.65;2.45;;;22.20;99.90;;;;;;5051579;28;20730;-58
2023/01/19 05:38:16;;;;;;;2.55;2.35;;;22.20;99.90;;;;;;5051045;28;20988;-59
2023/01/19 05:40:42;;;;;;;2.60;2.40;;;22.20;99.90;;;;;;5052194;28;20379;-59
2023/01/19 05:43:07;;;;;;;2.87;2.23;;;22.20;99.90;;;;;;5050398;28;20395;-59
2023/01/19 05:45:33;;;;;;;2.97;2.50;;;22.20;99.90;;;;;;5051398;28;20433;-59
2023/01/19 05:47:59;;;;;;;2.83;2.53;;;22.20;99.90;;;;;;5052948;28;20392;-59
2023/01/19 05:50:24;;;;;;;2.67;2.47;;;22.20;99.90;;;;;;5041342;28;20484;-59
2023/01/19 05:52:53;;;;;;;3.20;2.65;;;22.20;99.90;;;;;;5043057;28;20903;-62
2023/01/19 05:55:20;;;;;;;2.83;2.50;;;22.20;99.90;;;;;;5051687;28;20415;-59
2023/01/19 05:57:45;;;;;;;3.25;2.67;;;22.20;99.90;;;;;;5058165;28;20778;-58
2023/01/19 06:00:12;;;;;;;2.50;2.30;;;22.20;99.90;;;;;;5057692;28;20504;-59
2023/01/19 06:02:38;;;;;;;2.50;2.30;;;22.30;99.90;;;;;;5054427;28;20884;-59
2023/01/19 06:05:04;;;;;;;2.83;2.50;;;22.30;99.90;;;;;;5052508;28;20411;-59
2023/01/19 06:07:30;;;;;;;2.53;2.33;;;22.30;99.90;;;;;;5049766;28;20481;-59
2023/01/19 06:09:56;;;;;;;5.70;2.30;;;22.30;99.90;;;;;;5048972;28;20396;-59
2023/01/19 06:12:23;;;;;;;3.03;2.25;;;22.20;99.90;;;;;;5064487;28;20402;-60
2023/01/19 06:14:49;;;;;;;3.70;2.38;;;22.30;99.90;;;;;;5054392;28;20787;-61
2023/01/19 06:17:15;;;;;;;2.40;2.20;;;22.20;99.90;;;;;;5064356;28;20467;-60
2023/01/19 06:19:41;;;;;;;2.77;2.50;;;22.30;99.90;;;;;;5050803;28;20412;-60
2023/01/19 06:22:07;;;;;;;4.00;2.50;;;22.30;99.90;;;;;;5054279;28;20441;-59
2023/01/19 06:24:33;;;;;;;4.60;2.35;;;22.30;99.90;;;;;;5044780;28;20400;-60
2023/01/19 06:26:59;;;;;;;3.80;2.47;;;22.30;99.90;;;;;;5048679;28;20379;-60
2023/01/19 06:29:28;;;;;;;3.28;2.28;;;22.30;99.90;;;;;;5056950;28;20927;-60
2023/01/19 06:31:54;;;;;;;3.03;2.30;;;22.30;99.90;;;;;;5068685;28;20381;-60
2023/01/19 06:34:20;;;;;;;3.03;2.20;;;22.30;99.90;;;;;;5069236;28;20952;-60
2023/01/19 06:36:46;;;;;;;2.97;2.40;;;22.30;99.90;;;;;;5068350;28;20398;-60
2023/01/19 06:39:12;;;;;;;4.30;2.58;;;22.20;99.90;;;;;;5067826;28;20423;-59
2023/01/19 06:41:38;;;;;;;3.25;2.30;;;22.30;99.90;;;;;;5068419;28;20469;-61
2023/01/19 06:44:04;;;;;;;2.60;2.30;;;22.20;99.90;;;;;;5068473;28;20928;-59
2023/01/19 06:46:31;;;;;;;2.73;2.27;;;22.20;99.90;;;;;;5069087;28;20397;-60
2023/01/19 06:48:56;;;;;;;3.10;2.40;;;22.20;99.90;;;;;;5068223;28;20382;-59
2023/01/19 06:51:22;;;;;;;3.00;2.50;;;22.20;99.90;;;;;;5069176;28;20542;-59
2023/01/19 06:53:48;;;;;;;2.40;2.20;;;22.30;99.90;;;;;;5069228;28;20428;-59
2023/01/19 06:56:14;;;;;;;3.50;2.75;;;22.30;99.90;;;;;;5069385;28;20917;-59
2023/01/19 06:58:41;;;;;;;2.50;2.00;;;22.30;99.90;;;;;;5068528;28;20366;-59
2023/01/19 07:01:07;;;;;;;2.75;2.10;;;22.30;99.90;;;;;;5069209;28;20864;-60
2023/01/19 07:03:35;;;;;;;2.17;1.98;;;22.30;99.90;;;;;;5069041;28;20386;-61
2023/01/19 07:06:01;;;;;;;2.80;2.40;;;22.30;99.90;;;;;;5069130;28;20465;-60
2023/01/19 07:08:29;;;;;;;2.72;2.22;;;22.30;99.90;;;;;;5055308;28;20388;-59
2023/01/19 07:11:04;;;;;;;2.58;2.25;;;22.30;99.90;;;;;;5048714;28;20376;-60
2023/01/19 07:13:32;;;;;;;2.83;2.10;;;22.30;99.90;;;;;;5046461;28;20858;-60
2023/01/19 07:15:58;;;;;;;4.50;2.53;;;22.20;99.90;;;;;;5048249;28;20455;-59
2023/01/19 07:18:23;;;;;;;3.65;2.45;;;22.20;99.90;;;;;;5048159;28;20407;-59
2023/01/19 07:20:49;;;;;;;6.38;4.80;;;22.20;99.90;;;;;;5049022;28;20390;-60
2023/01/19 07:23:15;;;;;;;6.32;4.13;;;22.10;99.90;;;;;;5036535;28;20401;-60
2023/01/19 07:25:43;;;;;;;5.47;3.38;;;21.90;99.90;;;;;;5044397;28;20408;-59
2023/01/19 07:28:10;;;;;;;5.40;3.28;;;21.70;99.90;;;;;;5055787;28;20660;-60
2023/01/19 07:30:35;;;;;;;4.40;2.80;;;21.90;99.90;;;;;;5053335;28;20897;-59
2023/01/19 07:33:01;;;;;;;5.00;2.77;;;21.90;99.90;;;;;;5049455;28;20402;-59
2023/01/19 07:35:28;;;;;;;3.00;2.30;;;22.00;99.90;;;;;;5049120;28;20700;-59
2023/01/19 07:37:54;;;;;;;2.58;2.38;;;22.10;99.90;;;;;;5048409;28;20484;-60
2023/01/19 07:40:20;;;;;;;3.55;2.35;;;22.00;99.90;;;;;;5048791;28;20978;-60
2023/01/19 07:42:49;;;;;;;2.88;2.47;;;22.10;99.90;;;;;;5048557;28;20384;-59
2023/01/19 07:45:16;;;;;;;4.00;2.70;;;22.10;99.90;;;;;;5049225;28;20386;-59
2023/01/19 07:47:50;;;;;;;4.15;2.40;;;22.10;99.90;;;;;;5047499;28;20387;-59
2023/01/19 07:50:20;;;;;;;3.10;2.13;;;22.10;99.90;;;;;;5047980;28;20481;-59
2023/01/19 07:52:46;;;;;;;3.45;2.28;;;22.20;99.90;;;;;;5048527;28;20395;-59
2023/01/19 07:55:11;;;;;;;9.83;6.70;;;22.20;99.90;;;;;;5047454;28;21185;-60
2023/01/19 07:57:37;;;;;;;8.77;7.75;;;22.00;96.10;;;;;;5046327;28;20399;-59
2023/01/19 08:00:03;;;;;;;8.57;7.33;;;20.40;91.20;;;;;;5046845;28;20391;-59
2023/01/19 08:02:30;;;;;;;9.03;6.37;;;19.90;93.70;;;;;;5047069;28;20407;-59
2023/01/19 08:04:56;;;;;;;7.72;5.55;;;19.80;95.70;;;;;;5046778;28;20722;-58
2023/01/19 08:07:22;;;;;;;5.13;4.50;;;20.00;96.90;;;;;;5048645;28;20893;-59
2023/01/19 08:09:47;;;;;;;6.05;4.05;;;20.30;98.00;;;;;;5052411;28;20383;-59
2023/01/19 08:12:13;;;;;;;5.03;3.70;;;20.50;98.70;;;;;;5052791;28;20773;-58
2023/01/19 08:14:39;;;;;;;6.10;4.10;;;20.70;99.20;;;;;;5052503;28;20441;-59
2023/01/19 08:17:05;;;;;;;5.75;3.92;;;20.80;99.60;;;;;;5051974;28;20906;-59
2023/01/19 08:19:30;;;;;;;7.82;3.28;;;21.00;99.90;;;;;;5053317;28;20394;-59
2023/01/19 08:21:57;;;;;;;3.40;2.87;;;21.00;99.90;;;;;;5052879;28;20742;-59
2023/01/19 08:24:27;;;;;;;6.22;2.97;;;21.10;99.90;;;;;;5049327;28;20395;-59
2023/01/19 09:39:31;;;;;;;10.48;7.72;;;;;;;;;;5086147;28;20347;-80
2023/01/19 09:42:26;;;;;;;;;;;;;;;;;;;;;
2023/01/19 10:12:34;;;;;;;10.90;9.27;;;;;;;;;;5063650;28;20446;-84
2023/01/19 10:15:08;;;;;;;11.60;9.40;;;;;;;;;;5071920;28;20441;-81
2023/01/19 10:17:55;;;;;;;12.02;9.65;;;;;;;;;;5107622;28;20403;-81
2023/01/19 10:20:32;;;;;;;12.13;9.40;;;;;;;;;;5089754;28;20430;-81
2023/01/19 10:22:59;;;;;;;12.90;9.60;;;;;;;;;;5089782;28;20372;-81
2023/01/19 10:25:28;;;;;;;13.35;9.77;;;;;;;;;;5088928;28;20741;-81
2023/01/19 10:27:54;;;;;;;12.70;9.60;;;;;;;;;;5120018;27;20383;-81
2023/01/19 10:30:23;;;;;;;10.75;9.45;;;;;;;;;;5086821;28;20364;-81
2023/01/19 10:32:52;;;;;;;11.43;9.52;;;;;;;;;;5087226;28;20368;-82
2023/01/19 10:35:25;;;;;;;12.02;9.15;;;;;;;;;;5104038;28;20356;-81
2023/01/19 10:37:57;;;;;;;11.93;9.55;;;;;;;;;;5085958;28;20490;-81
2023/01/19 10:40:32;;;;;;;12.10;9.07;;;;;;;;;;5086658;28;20414;-81
2023/01/19 10:42:58;;;;;;;12.63;9.05;;;;;;;;;;5086550;28;20376;-81
2023/01/19 10:45:28;;;;;;;10.70;8.98;;;;;;;;;;5086634;28;20391;-81
2023/01/19 10:47:55;;;;;;;13.95;8.93;;;;;;;;;;5085421;28;20433;-81
2023/01/19 10:50:26;;;;;;;11.60;9.38;;;;;;;;;;5074831;28;20464;-82
2023/01/19 10:52:57;;;;;;;11.95;9.27;;;;;;;;;;5073406;28;20361;-81
2023/01/19 11:17:27;;;;;;;10.32;8.90;;;;;;;;;;4894018;29;20421;-81
2023/01/19 11:19:58;;;;;;;12.13;9.43;;;;;;;;;;4954532;28;20399;-82
2023/01/19 11:22:29;;;;;;;10.68;9.13;;;;;;;;;;5047529;28;20453;-82
2023/01/19 11:25:00;;;;;;;11.68;9.10;;;;;;;;;;5110433;27;20849;-82
2023/01/19 11:27:26;;;;;;;10.27;8.82;;;;;;;;;;5107036;28;20377;-82
2023/01/19 11:30:04;;;;;;;10.07;8.68;;;;;;;;;;5091845;28;20464;-82
2023/01/19 11:32:32;;;;;;;11.00;8.30;;;;;;;;;;5091137;28;20670;-82
2023/01/19 11:34:59;;;;;;;10.70;8.43;;;;;;;;;;5092584;27;20500;-82
2023/01/19 11:37:27;;;;;;;9.63;8.07;;;;;;;;;;5097267;27;20505;-82
2023/01/19 11:39:58;;;;;;;9.07;8.05;;;;;;;;;;5087641;28;20370;-81
2023/01/19 11:42:24;;;;;;;10.57;8.47;;;;;;;;;;5091444;28;20541;-82
2023/01/19 11:44:50;;;;;;;10.40;8.18;;;;;;;;;;5109071;28;20391;-81
2023/01/19 11:47:23;;;;;;;11.30;7.97;;;;;;;;;;5093564;28;20957;-82
2023/01/19 11:49:49;;;;;;;10.82;7.95;;;;;;;;;;5088695;28;20380;-81
2023/01/19 11:52:21;;;;;;;9.77;8.00;;;;;;;;;;5079804;28;20469;-81
2023/01/19 11:54:57;;;;;;;9.60;8.20;;;;;;;;;;5093872;28;20797;-81
2023/01/19 11:57:23;;;;;;;10.82;8.63;;;;;;;;;;5112082;28;20395;-80
2023/01/19 11:59:49;;;;;;;11.70;8.80;;;;;;;;;;5113047;28;20382;-81
2023/01/19 12:02:20;;;;;;;11.15;9.57;;;;;;;;;;5111830;28;20378;-81
2023/01/19 12:04:46;;;;;;;9.90;8.90;;;;;;;;;;5112826;28;20757;-81
2023/01/19 12:07:13;;;;;;;11.40;8.93;;;;;;;;;;5093643;28;20823;-81
2023/01/19 12:09:42;;;;;;;12.55;9.02;;;;;;;;;;5117384;28;20366;-83
2023/01/19 12:12:12;;;;;;;10.68;9.38;;;;;;;;;;5133315;28;20370;-82
2023/01/19 12:14:41;;;;;;;11.35;8.73;;;;;;;;;;5132306;28;20381;-83
2023/01/19 12:17:10;;;;;;;10.03;8.93;;;;;;;;;;5111797;28;20402;-82
2023/01/19 12:19:44;;;;;;;11.05;9.05;;;;;;;;;;5112161;28;20394;-82
2023/01/19 12:22:15;;;;;;;11.50;9.45;;;;;;;;;;5111913;28;20363;-81
2023/01/19 12:24:46;;;;;;;11.07;9.15;;;;;;;;;;5093682;28;20359;-82
2023/01/19 12:27:25;;;;;;;9.93;8.77;;;4.00;99.90;;;;;;5111343;28;20457;-83
2023/01/19 12:29:54;;;;;;;11.68;8.40;;;3.50;99.90;;;;;;5111389;28;20458;-82
2023/01/19 12:32:32;;;;;;;10.65;8.80;;;3.40;99.90;;;;;;5111579;28;20378;-82
2023/01/19 12:34:57;;;;;;;12.20;9.23;;;3.40;99.90;;;;;;5111497;28;20390;-83
2023/01/19 12:37:29;;;;;;;12.13;9.73;;;3.60;99.90;;;;;;5110572;28;20502;-82
2023/01/19 12:39:57;;;;;;;11.30;9.10;;;3.60;99.90;;;;;;5111178;28;20434;-82
2023/01/19 12:42:23;;;;;;;10.80;8.90;;;3.60;99.90;;;;;;5110877;28;20391;-80
2023/01/19 12:45:13;;;;;;;11.45;9.23;;;3.70;99.90;;;;;;5092126;28;20457;-82
2023/01/19 12:47:39;;;;;;;12.10;9.27;;;3.60;99.90;;;;;;5109875;28;20895;-82
2023/01/19 12:50:15;;;;;;;12.98;9.57;;;3.60;99.90;;;;;;5105196;28;20420;-82
2023/01/19 12:59:35;;;;;;;10.98;8.77;;;3.70;99.90;;;;;;5069402;28;20424;-82
2023/01/19 13:02:22;;;;;;;12.25;8.60;;;3.50;99.90;;;;;;5106749;28;20374;-82
2023/01/19 13:05:38;;;;;;;9.70;8.52;;;3.40;99.90;;;;;;5091410;28;20379;-82
2023/01/19 13:08:22;;;;;;;12.52;9.02;;;3.60;99.90;;;;;;5011598;28;20476;-83
2023/01/19 13:11:08;;;;;;;14.90;9.07;;;3.50;99.90;;;;;;5092738;28;20439;-83
2023/01/19 13:14:21;;;;;;;14.10;8.60;;;3.50;99.90;;;;;;5092483;28;20903;-83
2023/01/19 13:17:32;;;;;;;;;;;;;;;;;;;;;
2023/01/19 13:20:23;;;;;;;10.85;8.73;;;3.50;99.90;;;;;;5085363;28;20395;-83
2023/01/19 13:23:15;;;;;;;11.77;8.98;;;3.60;99.90;;;;;;5099417;28;20410;-81
2023/01/19 13:25:59;;;;;;;12.13;9.53;;;3.50;99.90;;;;;;5109699;28;20388;-80
2023/01/19 13:28:49;;;;;;;12.47;9.03;;;3.50;99.90;;;;;;5110473;28;20366;-81
2023/01/19 13:31:15;;;;;;;11.05;8.80;;;3.40;99.90;;;;;;5110567;28;20462;-80
2023/01/19 13:33:54;;;;;;;12.52;9.18;;;3.30;99.90;;;;;;5110619;28;20374;-81
2023/01/19 13:36:33;;;;;;;11.20;9.88;;;3.30;99.90;;;;;;5111160;28;20362;-81
2023/01/19 13:39:05;;;;;;;11.63;9.35;;;3.40;99.90;;;;;;5109708;28;20390;-82
2023/01/19 13:41:36;;;;;;;11.15;9.40;;;3.50;99.90;;;;;;5110681;28;20930;-81
2023/01/19 13:44:28;;;;;;;11.02;9.07;;;3.50;99.90;;;;;;5110447;28;20756;-81
2023/01/19 13:46:55;;;;;;;11.23;9.25;;;3.40;99.90;;;;;;5110419;28;20782;-80
2023/01/19 13:49:38;;;;;;;12.60;8.95;;;3.40;99.90;;;;;;5109441;28;20413;-83
2023/01/19 13:52:11;;;;;;;12.13;9.48;;;3.40;99.90;;;;;;5111015;28;20371;-82
2023/01/19 13:54:49;;;;;;;10.35;8.93;;;3.30;99.90;;;;;;5110416;28;20379;-81
2023/01/19 13:57:31;;;;;;;10.93;9.50;;;3.40;99.90;;;;;;5092758;28;20386;-81
2023/01/19 14:00:15;;;;;;;12.00;9.40;;;3.30;99.90;;;;;;5110692;28;20849;-82
2023/01/19 14:03:50;;;;;;;;;;;;;;;;;;;;;
2023/01/19 14:06:34;;;;;;;10.57;9.45;;;3.40;99.90;;;;;;5027794;28;20408;-81
2023/01/19 14:10:13;;;;;;;14.60;10.18;;;3.30;99.90;;;;;;5028295;28;20470;-81
2023/01/19 14:12:38;;;;;;;12.50;9.98;;;3.20;99.90;;;;;;5010946;28;20411;-81
2023/01/19 14:15:11;;;;;;;15.05;10.35;;;3.30;99.90;;;;;;5023130;28;20405;-80
2023/01/19 14:17:41;;;;;;;12.57;9.27;;;3.20;99.90;;;;;;4923194;28;20426;-81
2023/01/19 14:20:35;;;;;;;12.45;9.80;;;3.30;99.90;;;;;;5010642;28;20374;-81
2023/01/19 14:23:34;;;;;;;;;;;;;;;;;;;;;
2023/01/19 14:26:00;;;;;;;12.90;9.30;;;3.20;99.90;;;;;;5029518;28;20397;-82
2023/01/19 14:28:42;;;;;;;9.47;8.53;;;3.20;99.90;;;;;;5029079;28;20492;-81
2023/01/19 14:31:25;;;;;;;13.45;9.93;;;3.20;99.90;;;;;;5021027;28;20809;-81
2023/01/19 14:33:53;;;;;;;12.07;9.48;;;3.20;99.90;;;;;;5013892;28;20394;-81
2023/01/19 14:36:37;;;;;;;12.18;9.25;;;3.10;99.90;;;;;;5029629;28;20389;-82
2023/01/19 14:39:13;;;;;;;12.07;10.40;;;3.00;99.90;;;;;;5029159;28;20413;-81
2023/01/19 14:41:55;;;;;;;12.63;9.53;;;3.00;99.90;;;;;;5033901;28;20476;-82
2023/01/19 14:44:28;;;;;;;12.05;9.68;;;2.90;99.90;;;;;;5033443;28;20397;-81
2023/01/19 14:46:55;;;;;;;12.40;10.43;;;2.90;99.90;;;;;;5033254;28;20409;-81
2023/01/19 14:49:30;;;;;;;11.20;9.30;;;2.90;99.90;;;;;;5044735;28;20796;-80
2023/01/19 14:51:56;;;;;;;11.73;10.00;;;2.90;99.90;;;;;;5052831;28;20387;-81
2023/01/19 14:54:38;;;;;;;12.25;10.10;;;2.90;99.90;;;;;;5051783;28;20734;-79
2023/01/19 14:57:04;;;;;;;12.90;10.60;;;2.90;99.90;;;;;;5056809;28;20414;-81
2023/01/19 14:59:31;;;;;;;12.43;10.93;;;2.80;99.90;;;;;;5059939;28;20499;-81
2023/01/19 15:01:58;;;;;;;12.20;10.43;;;2.80;99.90;;;;;;5049895;28;20400;-81
2023/01/19 15:04:24;;;;;;;14.17;11.10;;;2.80;99.90;;;;;;5045528;28;20386;-80
2023/01/19 15:06:50;;;;;;;12.43;10.00;;;2.80;99.90;;;;;;5052203;28;20379;-80
2023/01/19 15:09:19;;;;;;;15.00;10.93;;;2.80;99.90;;;;;;5051272;28;20741;-81
2023/01/19 15:11:47;;;;;;;14.45;10.73;;;2.70;99.90;;;;;;5051252;28;20388;-81
2023/01/19 15:14:15;;;;;;;14.20;11.18;;;2.70;99.90;;;;;;5052588;28;20459;-80
2023/01/19 15:16:41;;;;;;;13.00;10.20;;;2.70;99.90;;;;;;5052634;28;20407;-80
2023/01/19 15:19:18;;;;;;;14.82;11.20;;;2.70;99.90;;;;;;5050264;28;20399;-81
2023/01/19 15:21:45;;;;;;;14.77;10.97;;;2.60;99.90;;;;;;5037941;28;20434;-80
2023/01/19 15:24:14;;;;;;;16.42;11.80;;;2.70;99.90;;;;;;5039270;28;20787;-81
2023/01/19 15:26:42;;;;;;;14.27;11.10;;;2.70;99.90;;;;;;5069536;28;20406;-80
2023/01/19 15:29:22;;;;;;;13.93;10.90;;;2.70;99.90;;;;;;5071905;28;20404;-80
2023/01/19 15:31:48;;;;;;;13.48;11.05;;;2.70;99.90;;;;;;5072309;28;20374;-81
2023/01/19 15:34:13;;;;;;;14.88;12.10;;;2.70;99.90;;;;;;5072143;28;20945;-81
2023/01/19 15:36:41;;;;;;;15.18;12.15;;;2.70;99.90;;;;;;5070857;28;20464;-81
2023/01/19 15:39:06;;;;;;;13.90;11.13;;;2.60;99.90;;;;;;5060393;28;20414;-81
2023/01/19 15:41:36;;;;;;;15.83;12.13;;;2.60;99.90;;;;;;5071603;28;21407;-81